sensor_id;sensor_type;location;lat;lon;timestamp;pressure;altitude;pressure_sealevel;temperature;humidity
61026;BME280;46911;32.650;-16.902;2023-06-14T00:01:10;101748.72;;;18.38;73.12
61026;BME280;46911;32.650;-16.902;2023-06-14T00:03:14;101755.59;;;18.43;72.97
61026;BME280;46911;32.650;-16.902;2023-06-14T00:05:18;101754.41;;;18.35;73.07
61026;BME280;46911;32.650;-16.902;2023-06-14T00:07:27;101750.72;;;18.36;73.04
61026;BME280;46911;32.650;-16.902;2023-06-14T00:09:33;101730.72;;;18.28;73.11
61026;BME280;46911;32.650;-16.902;2023-06-14T00:11:37;101738.59;;;18.31;73.03
61026;BME280;46911;32.650;-16.902;2023-06-14T00:13:40;101743.84;;;18.32;73.22
61026;BME280;46911;32.650;-16.902;2023-06-14T00:15:41;101734.81;;;18.22;72.99
61026;BME280;46911;32.650;-16.902;2023-06-14T00:17:43;101734.31;;;18.28;73.11
61026;BME280;46911;32.650;-16.902;2023-06-14T00:19:48;101742.41;;;18.28;73.05
61026;BME280;46911;32.650;-16.902;2023-06-14T00:21:53;101723.50;;;18.28;72.77
61026;BME280;46911;32.650;-16.902;2023-06-14T00:23:54;101732.31;;;18.30;73.00
61026;BME280;46911;32.650;-16.902;2023-06-14T00:25:56;101730.38;;;18.21;73.42
61026;BME280;46911;32.650;-16.902;2023-06-14T00:27:57;101737.25;;;18.25;73.14
61026;BME280;46911;32.650;-16.902;2023-06-14T00:30:01;101748.31;;;18.22;73.16
61026;BME280;46911;32.650;-16.902;2023-06-14T00:32:04;101737.78;;;18.19;73.21
61026;BME280;46911;32.650;-16.902;2023-06-14T00:34:10;101734.59;;;18.14;73.22
61026;BME280;46911;32.650;-16.902;2023-06-14T00:36:15;101725.19;;;18.08;73.45
61026;BME280;46911;32.650;-16.902;2023-06-14T00:38:18;101735.31;;;18.16;73.63
61026;BME280;46911;32.650;-16.902;2023-06-14T00:40:24;101727.50;;;18.13;73.64
61026;BME280;46911;32.650;-16.902;2023-06-14T00:42:28;101729.47;;;18.11;73.63
61026;BME280;46911;32.650;-16.902;2023-06-14T00:44:32;101722.97;;;18.13;73.77
61026;BME280;46911;32.650;-16.902;2023-06-14T00:46:33;101731.28;;;18.10;73.48
61026;BME280;46911;32.650;-16.902;2023-06-14T00:48:37;101720.91;;;18.05;73.65
61026;BME280;46911;32.650;-16.902;2023-06-14T00:50:42;101711.06;;;18.04;73.45
61026;BME280;46911;32.650;-16.902;2023-06-14T00:52:46;101709.00;;;18.08;73.56
61026;BME280;46911;32.650;-16.902;2023-06-14T00:54:47;101697.84;;;18.01;73.47
61026;BME280;46911;32.650;-16.902;2023-06-14T00:56:48;101710.81;;;18.07;73.48
61026;BME280;46911;32.650;-16.902;2023-06-14T00:58:50;101712.53;;;18.09;73.68
61026;BME280;46911;32.650;-16.902;2023-06-14T01:00:51;101698.69;;;18.02;73.33
61026;BME280;46911;32.650;-16.902;2023-06-14T01:02:55;101714.53;;;18.06;73.43
61026;BME280;46911;32.650;-16.902;2023-06-14T01:04:56;101698.34;;;17.95;73.52
61026;BME280;46911;32.650;-16.902;2023-06-14T01:07:02;101709.22;;;18.05;73.52
61026;BME280;46911;32.650;-16.902;2023-06-14T01:12:00;101699.31;;;18.05;73.65
61026;BME280;46911;32.650;-16.902;2023-06-14T01:14:03;101701.25;;;18.03;73.65
61026;BME280;46911;32.650;-16.902;2023-06-14T01:16:05;101694.91;;;17.93;73.79
61026;BME280;46911;32.650;-16.902;2023-06-14T01:18:09;101683.50;;;17.89;73.95
61026;BME280;46911;32.650;-16.902;2023-06-14T01:20:20;101691.00;;;17.97;74.08
61026;BME280;46911;32.650;-16.902;2023-06-14T01:22:26;101681.78;;;17.88;73.89
61026;BME280;46911;32.650;-16.902;2023-06-14T01:24:31;101685.59;;;17.86;74.15
61026;BME280;46911;32.650;-16.902;2023-06-14T01:26:34;101684.13;;;17.82;74.17
61026;BME280;46911;32.650;-16.902;2023-06-14T01:28:40;101688.28;;;17.86;74.15
61026;BME280;46911;32.650;-16.902;2023-06-14T01:30:43;101689.75;;;17.90;74.18
61026;BME280;46911;32.650;-16.902;2023-06-14T01:32:49;101679.59;;;17.82;74.28
61026;BME280;46911;32.650;-16.902;2023-06-14T01:34:54;101686.72;;;17.83;74.34
61026;BME280;46911;32.650;-16.902;2023-06-14T01:36:55;101679.59;;;17.82;74.31
61026;BME280;46911;32.650;-16.902;2023-06-14T01:39:02;101676.03;;;17.82;74.36
61026;BME280;46911;32.650;-16.902;2023-06-14T01:41:08;101670.50;;;17.83;74.59
61026;BME280;46911;32.650;-16.902;2023-06-14T01:43:10;101677.16;;;17.79;74.30
61026;BME280;46911;32.650;-16.902;2023-06-14T01:45:15;101679.72;;;17.81;74.47
61026;BME280;46911;32.650;-16.902;2023-06-14T01:47:17;101679.84;;;17.79;74.44
61026;BME280;46911;32.650;-16.902;2023-06-14T01:49:22;101668.84;;;17.71;74.45
61026;BME280;46911;32.650;-16.902;2023-06-14T01:51:26;101667.00;;;17.71;74.39
61026;BME280;46911;32.650;-16.902;2023-06-14T01:53:27;101684.41;;;17.79;74.68
61026;BME280;46911;32.650;-16.902;2023-06-14T01:55:30;101681.56;;;17.80;74.18
61026;BME280;46911;32.650;-16.902;2023-06-14T01:57:43;101665.13;;;17.83;74.04
61026;BME280;46911;32.650;-16.902;2023-06-14T01:59:44;101661.09;;;17.78;74.11
61026;BME280;46911;32.650;-16.902;2023-06-14T02:01:51;101660.81;;;17.81;74.07
61026;BME280;46911;32.650;-16.902;2023-06-14T02:03:54;101677.22;;;17.89;74.04
61026;BME280;46911;32.650;-16.902;2023-06-14T02:05:55;101674.81;;;17.97;73.88
61026;BME280;46911;32.650;-16.902;2023-06-14T02:07:56;101665.72;;;17.87;73.69
61026;BME280;46911;32.650;-16.902;2023-06-14T02:09:58;101671.97;;;17.87;73.90
61026;BME280;46911;32.650;-16.902;2023-06-14T02:12:01;101662.16;;;17.86;73.79
61026;BME280;46911;32.650;-16.902;2023-06-14T02:14:04;101657.91;;;17.84;73.64
61026;BME280;46911;32.650;-16.902;2023-06-14T02:16:07;101664.97;;;17.85;74.02
61026;BME280;46911;32.650;-16.902;2023-06-14T02:18:08;101662.53;;;17.82;73.68
61026;BME280;46911;32.650;-16.902;2023-06-14T02:20:11;101660.34;;;17.76;73.81
61026;BME280;46911;32.650;-16.902;2023-06-14T02:22:17;101652.03;;;17.79;73.43
61026;BME280;46911;32.650;-16.902;2023-06-14T02:24:18;101652.03;;;17.79;73.40
61026;BME280;46911;32.650;-16.902;2023-06-14T02:26:19;101642.47;;;17.74;73.28
61026;BME280;46911;32.650;-16.902;2023-06-14T02:28:20;101626.31;;;17.63;73.35
61026;BME280;46911;32.650;-16.902;2023-06-14T02:30:24;101653.97;;;17.77;73.45
61026;BME280;46911;32.650;-16.902;2023-06-14T02:32:30;101663.19;;;17.74;73.42
61026;BME280;46911;32.650;-16.902;2023-06-14T02:34:34;101650.81;;;17.71;73.23
61026;BME280;46911;32.650;-16.902;2023-06-14T02:36:44;101650.31;;;17.66;73.40
61026;BME280;46911;32.650;-16.902;2023-06-14T02:38:48;101652.66;;;17.71;73.29
61026;BME280;46911;32.650;-16.902;2023-06-14T02:40:49;101649.47;;;17.66;73.42
61026;BME280;46911;32.650;-16.902;2023-06-14T02:42:52;101649.34;;;17.67;73.43
61026;BME280;46911;32.650;-16.902;2023-06-14T02:44:53;101653.28;;;17.63;73.47
61026;BME280;46911;32.650;-16.902;2023-06-14T02:46:55;101630.88;;;17.51;73.63
61026;BME280;46911;32.650;-16.902;2023-06-14T02:48:56;101649.00;;;17.61;73.83
61026;BME280;46911;32.650;-16.902;2023-06-14T02:50:57;101628.03;;;17.64;73.41
61026;BME280;46911;32.650;-16.902;2023-06-14T02:52:58;101626.94;;;17.55;73.52
61026;BME280;46911;32.650;-16.902;2023-06-14T02:55:04;101635.91;;;17.56;73.56
61026;BME280;46911;32.650;-16.902;2023-06-14T02:57:05;101636.75;;;17.56;73.72
61026;BME280;46911;32.650;-16.902;2023-06-14T02:59:08;101639.59;;;17.55;73.82
61026;BME280;46911;32.650;-16.902;2023-06-14T03:01:14;101633.56;;;17.51;73.80
61026;BME280;46911;32.650;-16.902;2023-06-14T03:03:18;101644.97;;;17.55;73.95
61026;BME280;46911;32.650;-16.902;2023-06-14T03:05:25;101636.41;;;17.50;73.92
61026;BME280;46911;32.650;-16.902;2023-06-14T03:07:33;101643.41;;;17.52;73.96
61026;BME280;46911;32.650;-16.902;2023-06-14T03:09:36;101638.13;;;17.51;74.06
61026;BME280;46911;32.650;-16.902;2023-06-14T03:11:38;101637.38;;;17.49;74.16
61026;BME280;46911;32.650;-16.902;2023-06-14T03:13:39;101645.34;;;17.50;74.27
61026;BME280;46911;32.650;-16.902;2023-06-14T03:15:42;101647.94;;;17.52;74.28
61026;BME280;46911;32.650;-16.902;2023-06-14T03:17:49;101634.94;;;17.46;74.29
61026;BME280;46911;32.650;-16.902;2023-06-14T03:19:55;101647.19;;;17.50;74.12
61026;BME280;46911;32.650;-16.902;2023-06-14T03:21:56;101642.53;;;17.52;74.10
61026;BME280;46911;32.650;-16.902;2023-06-14T03:24:02;101649.91;;;17.50;74.15
61026;BME280;46911;32.650;-16.902;2023-06-14T03:26:07;101638.63;;;17.45;74.02
61026;BME280;46911;32.650;-16.902;2023-06-14T03:28:12;101647.94;;;17.52;73.94
61026;BME280;46911;32.650;-16.902;2023-06-14T03:30:15;101636.19;;;17.42;74.01
61026;BME280;46911;32.650;-16.902;2023-06-14T03:32:19;101639.88;;;17.40;74.03
61026;BME280;46911;32.650;-16.902;2023-06-14T03:34:20;101640.13;;;17.37;74.21
61026;BME280;46911;32.650;-16.902;2023-06-14T03:36:21;101646.38;;;17.38;74.24
61026;BME280;46911;32.650;-16.902;2023-06-14T03:38:23;101653.34;;;17.40;74.11
61026;BME280;46911;32.650;-16.902;2023-06-14T03:40:25;101650.91;;;17.37;74.26
61026;BME280;46911;32.650;-16.902;2023-06-14T03:42:34;101630.94;;;17.29;74.25
61026;BME280;46911;32.650;-16.902;2023-06-14T03:44:35;101654.31;;;17.39;73.83
61026;BME280;46911;32.650;-16.902;2023-06-14T03:46:36;101645.31;;;17.29;73.92
61026;BME280;46911;32.650;-16.902;2023-06-14T03:48:37;101644.56;;;17.27;74.04
61026;BME280;46911;32.650;-16.902;2023-06-14T03:50:42;101640.88;;;17.28;73.96
61026;BME280;46911;32.650;-16.902;2023-06-14T03:52:51;101640.88;;;17.28;74.05
61026;BME280;46911;32.650;-16.902;2023-06-14T03:54:52;101657.28;;;17.36;73.94
61026;BME280;46911;32.650;-16.902;2023-06-14T03:56:57;101649.59;;;17.32;74.00
61026;BME280;46911;32.650;-16.902;2023-06-14T03:58:59;101656.31;;;17.37;74.00
61026;BME280;46911;32.650;-16.902;2023-06-14T04:01:05;101646.00;;;17.31;73.74
61026;BME280;46911;32.650;-16.902;2023-06-14T04:03:08;101647.59;;;17.34;73.92
61026;BME280;46911;32.650;-16.902;2023-06-14T04:05:10;101650.91;;;17.37;73.48
61026;BME280;46911;32.650;-16.902;2023-06-14T04:07:17;101640.13;;;17.26;73.46
61026;BME280;46911;32.650;-16.902;2023-06-14T04:09:23;101653.00;;;17.34;73.49
61026;BME280;46911;32.650;-16.902;2023-06-14T04:11:25;101656.44;;;17.36;73.31
61026;BME280;46911;32.650;-16.902;2023-06-14T04:13:27;101652.88;;;17.35;73.38
61026;BME280;46911;32.650;-16.902;2023-06-14T04:15:31;101647.13;;;17.29;73.43
61026;BME280;46911;32.650;-16.902;2023-06-14T04:17:33;101654.38;;;17.28;73.40
61026;BME280;46911;32.650;-16.902;2023-06-14T04:19:37;101655.34;;;17.27;73.33
61026;BME280;46911;32.650;-16.902;2023-06-14T04:21:38;101645.03;;;17.21;73.26
61026;BME280;46911;32.650;-16.902;2023-06-14T04:23:39;101646.41;;;17.27;72.99
61026;BME280;46911;32.650;-16.902;2023-06-14T04:25:45;101649.09;;;17.27;73.15
61026;BME280;46911;32.650;-16.902;2023-06-14T04:27:46;101654.72;;;17.23;73.36
61026;BME280;46911;32.650;-16.902;2023-06-14T04:29:48;101652.03;;;17.23;72.70
61026;BME280;46911;32.650;-16.902;2023-06-14T04:31:54;101652.91;;;17.24;72.64
61026;BME280;46911;32.650;-16.902;2023-06-14T04:34:00;101644.81;;;17.24;72.84
61026;BME280;46911;32.650;-16.902;2023-06-14T04:36:01;101642.59;;;17.18;73.00
61026;BME280;46911;32.650;-16.902;2023-06-14T04:38:04;101646.06;;;17.20;73.13
61026;BME280;46911;32.650;-16.902;2023-06-14T04:40:07;101634.78;;;17.15;72.88
61026;BME280;46911;32.650;-16.902;2023-06-14T04:42:10;101644.47;;;17.17;73.14
61026;BME280;46911;32.650;-16.902;2023-06-14T04:44:12;101638.94;;;17.19;72.99
61026;BME280;46911;32.650;-16.902;2023-06-14T04:46:23;101647.50;;;17.24;72.98
61026;BME280;46911;32.650;-16.902;2023-06-14T04:48:26;101645.78;;;17.23;73.23
61026;BME280;46911;32.650;-16.902;2023-06-14T04:50:29;101629.38;;;17.15;73.18
61026;BME280;46911;32.650;-16.902;2023-06-14T04:52:30;101644.31;;;17.19;73.09
61026;BME280;46911;32.650;-16.902;2023-06-14T04:54:32;101637.59;;;17.13;73.07
61026;BME280;46911;32.650;-16.902;2023-06-14T04:56:37;101647.88;;;17.19;73.20
61026;BME280;46911;32.650;-16.902;2023-06-14T04:58:38;101642.59;;;17.18;73.24
61026;BME280;46911;32.650;-16.902;2023-06-14T05:00:39;101637.59;;;17.13;73.05
61026;BME280;46911;32.650;-16.902;2023-06-14T05:02:40;101637.47;;;17.15;72.98
61026;BME280;46911;32.650;-16.902;2023-06-14T05:04:43;101646.19;;;17.18;72.82
61026;BME280;46911;32.650;-16.902;2023-06-14T05:06:45;101645.69;;;17.13;72.99
61026;BME280;46911;32.650;-16.902;2023-06-14T05:08:47;101650.44;;;17.21;72.56
61026;BME280;46911;32.650;-16.902;2023-06-14T05:10:48;101634.03;;;17.13;72.38
61026;BME280;46911;32.650;-16.902;2023-06-14T05:12:51;101648.88;;;17.18;72.38
61026;BME280;46911;32.650;-16.902;2023-06-14T05:14:54;101652.16;;;17.22;72.27
61026;BME280;46911;32.650;-16.902;2023-06-14T05:16:59;101639.56;;;17.11;72.37
61026;BME280;46911;32.650;-16.902;2023-06-14T05:19:03;101648.13;;;17.16;72.08
61026;BME280;46911;32.650;-16.902;2023-06-14T05:21:04;101648.00;;;17.18;72.02
61026;BME280;46911;32.650;-16.902;2023-06-14T05:23:06;101636.72;;;17.13;72.00
61026;BME280;46911;32.650;-16.902;2023-06-14T05:25:07;101644.59;;;17.16;72.01
61026;BME280;46911;32.650;-16.902;2023-06-14T05:27:10;101629.66;;;17.12;71.87
61026;BME280;46911;32.650;-16.902;2023-06-14T05:29:16;101647.50;;;17.13;72.00
61026;BME280;46911;32.650;-16.902;2023-06-14T05:31:24;101646.28;;;17.17;72.06
61026;BME280;46911;32.650;-16.902;2023-06-14T05:33:29;101634.41;;;17.08;72.23
61026;BME280;46911;32.650;-16.902;2023-06-14T05:35:30;101637.09;;;17.19;71.86
61026;BME280;46911;32.650;-16.902;2023-06-14T05:37:32;101641.63;;;17.19;71.64
61026;BME280;46911;32.650;-16.902;2023-06-14T05:39:33;101634.66;;;17.16;71.95
61026;BME280;46911;32.650;-16.902;2023-06-14T05:41:33;101639.06;;;17.17;72.04
61026;BME280;46911;32.650;-16.902;2023-06-14T05:43:37;101643.84;;;17.25;71.95
61026;BME280;46911;32.650;-16.902;2023-06-14T05:45:41;101661.31;;;17.42;71.50
61026;BME280;46911;32.650;-16.902;2023-06-14T05:47:42;101654.47;;;17.38;71.64
61026;BME280;46911;32.650;-16.902;2023-06-14T05:49:42;101653.63;;;17.37;71.59
61026;BME280;46911;32.650;-16.902;2023-06-14T05:51:43;101652.66;;;17.27;71.78
61026;BME280;46911;32.650;-16.902;2023-06-14T05:53:48;101665.75;;;17.32;71.94
61026;BME280;46911;32.650;-16.902;2023-06-14T05:55:52;101659.28;;;17.23;72.18
61026;BME280;46911;32.650;-16.902;2023-06-14T05:57:55;101663.44;;;17.27;72.00
61026;BME280;46911;32.650;-16.902;2023-06-14T05:59:59;101653.88;;;17.23;72.10
61026;BME280;46911;32.650;-16.902;2023-06-14T06:02:12;101665.38;;;17.36;71.17
61026;BME280;46911;32.650;-16.902;2023-06-14T06:04:13;101657.78;;;17.30;71.18
61026;BME280;46911;32.650;-16.902;2023-06-14T06:06:17;101658.38;;;17.34;71.05
61026;BME280;46911;32.650;-16.902;2023-06-14T06:08:20;101662.41;;;17.39;70.85
61026;BME280;46911;32.650;-16.902;2023-06-14T06:10:23;101672.50;;;17.37;70.92
61026;BME280;46911;32.650;-16.902;2023-06-14T06:12:27;101656.09;;;17.29;70.84
61026;BME280;46911;32.650;-16.902;2023-06-14T06:14:33;101672.75;;;17.34;70.84
61026;BME280;46911;32.650;-16.902;2023-06-14T06:16:34;101666.63;;;17.32;70.94
61026;BME280;46911;32.650;-16.902;2023-06-14T06:18:40;101659.88;;;17.27;70.59
61026;BME280;46911;32.650;-16.902;2023-06-14T06:20:41;101675.31;;;17.36;70.22
61026;BME280;46911;32.650;-16.902;2023-06-14T06:22:44;101680.06;;;17.55;69.55
61026;BME280;46911;32.650;-16.902;2023-06-14T06:24:45;101683.72;;;17.54;69.54
61026;BME280;46911;32.650;-16.902;2023-06-14T06:26:52;101681.56;;;17.48;69.49
61026;BME280;46911;32.650;-16.902;2023-06-14T06:28:53;101681.28;;;17.51;69.68
61026;BME280;46911;32.650;-16.902;2023-06-14T06:30:54;101697.34;;;17.52;69.40
61026;BME280;46911;32.650;-16.902;2023-06-14T06:32:58;101693.53;;;17.55;69.69
61026;BME280;46911;32.650;-16.902;2023-06-14T06:34:58;101680.81;;;17.46;69.80
61026;BME280;46911;32.650;-16.902;2023-06-14T06:37:00;101698.09;;;17.54;69.65
61026;BME280;46911;32.650;-16.902;2023-06-14T06:39:06;101683.59;;;17.55;70.02
61026;BME280;46911;32.650;-16.902;2023-06-14T06:41:10;101693.03;;;17.61;69.94
61026;BME280;46911;32.650;-16.902;2023-06-14T06:43:18;101698.88;;;17.66;69.97
61026;BME280;46911;32.650;-16.902;2023-06-14T06:45:22;101695.81;;;17.71;70.27
61026;BME280;46911;32.650;-16.902;2023-06-14T06:47:23;101699.13;;;17.74;70.16
61026;BME280;46911;32.650;-16.902;2023-06-14T06:49:27;101685.38;;;17.78;70.07
61026;BME280;46911;32.650;-16.902;2023-06-14T06:51:28;101693.22;;;17.81;69.97
61026;BME280;46911;32.650;-16.902;2023-06-14T06:53:29;101702.53;;;17.88;69.87
61026;BME280;46911;32.650;-16.902;2023-06-14T06:55:30;101702.41;;;17.89;69.87
61026;BME280;46911;32.650;-16.902;2023-06-14T06:57:31;101691.75;;;17.88;69.87
61026;BME280;46911;32.650;-16.902;2023-06-14T06:59:32;101704.69;;;18.05;69.50
61026;BME280;46911;32.650;-16.902;2023-06-14T07:01:33;101702.72;;;18.07;69.10
61026;BME280;46911;32.650;-16.902;2023-06-14T07:03:34;101699.88;;;18.09;68.76
61026;BME280;46911;32.650;-16.902;2023-06-14T07:05:36;101696.34;;;18.09;68.55
61026;BME280;46911;32.650;-16.902;2023-06-14T07:07:37;101696.28;;;18.20;68.09
61026;BME280;46911;32.650;-16.902;2023-06-14T07:09:40;101700.44;;;18.24;68.12
61026;BME280;46911;32.650;-16.902;2023-06-14T07:11:43;101696.03;;;18.23;67.90
61026;BME280;46911;32.650;-16.902;2023-06-14T07:13:45;101706.50;;;18.37;67.80
61026;BME280;46911;32.650;-16.902;2023-06-14T07:15:48;101700.38;;;18.35;67.85
61026;BME280;46911;32.650;-16.902;2023-06-14T07:17:53;101699.25;;;18.38;67.35
61026;BME280;46911;32.650;-16.902;2023-06-14T07:20:00;101700.69;;;18.42;67.53
61026;BME280;46911;32.650;-16.902;2023-06-14T07:22:02;101694.31;;;18.43;67.65
61026;BME280;46911;32.650;-16.902;2023-06-14T07:24:04;101697.47;;;18.48;67.77
61026;BME280;46911;32.650;-16.902;2023-06-14T07:26:05;101706.63;;;18.57;67.86
61026;BME280;46911;32.650;-16.902;2023-06-14T07:28:08;101716.06;;;18.63;67.62
61026;BME280;46911;32.650;-16.902;2023-06-14T07:30:10;101710.38;;;18.66;67.61
61026;BME280;46911;32.650;-16.902;2023-06-14T07:32:11;101699.97;;;18.61;67.65
61026;BME280;46911;32.650;-16.902;2023-06-14T07:34:12;101703.59;;;18.71;67.70
61026;BME280;46911;32.650;-16.902;2023-06-14T07:36:13;101713.00;;;18.77;67.88
61026;BME280;46911;32.650;-16.902;2023-06-14T07:38:16;101704.03;;;18.77;67.94
61026;BME280;46911;32.650;-16.902;2023-06-14T07:40:19;101703.78;;;18.80;67.87
61026;BME280;46911;32.650;-16.902;2023-06-14T07:42:22;101712.06;;;18.88;68.20
61026;BME280;46911;32.650;-16.902;2023-06-14T07:44:29;101716.97;;;18.94;68.38
61026;BME280;46911;32.650;-16.902;2023-06-14T07:46:35;101726.97;;;19.03;68.18
61026;BME280;46911;32.650;-16.902;2023-06-14T07:48:36;101719.31;;;19.09;68.07
61026;BME280;46911;32.650;-16.902;2023-06-14T07:50:39;101725.88;;;19.16;68.11
61026;BME280;46911;32.650;-16.902;2023-06-14T07:52:41;101723.63;;;19.21;68.45
61026;BME280;46911;32.650;-16.902;2023-06-14T07:54:42;101723.94;;;19.28;68.28
61026;BME280;46911;32.650;-16.902;2023-06-14T07:56:43;101720.94;;;19.31;68.37
61026;BME280;46911;32.650;-16.902;2023-06-14T07:58:45;101722.84;;;19.40;68.54
61026;BME280;46911;32.650;-16.902;2023-06-14T08:00:46;101732.84;;;19.49;68.50
61026;BME280;46911;32.650;-16.902;2023-06-14T08:02:47;101732.44;;;19.54;68.19
61026;BME280;46911;32.650;-16.902;2023-06-14T08:04:51;101741.00;;;19.59;68.43
61026;BME280;46911;32.650;-16.902;2023-06-14T08:06:53;101725.31;;;19.63;68.35
61026;BME280;46911;32.650;-16.902;2023-06-14T08:08:56;101740.59;;;19.73;68.50
61026;BME280;46911;32.650;-16.902;2023-06-14T08:10:57;101733.78;;;19.79;68.43
61026;BME280;46911;32.650;-16.902;2023-06-14T08:13:00;101741.50;;;19.84;68.03
61026;BME280;46911;32.650;-16.902;2023-06-14T08:15:06;101742.91;;;19.88;68.21
61026;BME280;46911;32.650;-16.902;2023-06-14T08:17:08;101747.63;;;19.96;68.10
61026;BME280;46911;32.650;-16.902;2023-06-14T08:19:11;101748.22;;;19.99;67.94
61026;BME280;46911;32.650;-16.902;2023-06-14T08:21:12;101743.25;;;20.04;67.91
61026;BME280;46911;32.650;-16.902;2023-06-14T08:23:17;101735.13;;;20.04;68.11
61026;BME280;46911;32.650;-16.902;2023-06-14T08:25:21;101746.78;;;20.15;67.42
61026;BME280;46911;32.650;-16.902;2023-06-14T08:27:23;101741.09;;;20.08;67.74
61026;BME280;46911;32.650;-16.902;2023-06-14T08:29:27;101744.09;;;20.15;67.42
61026;BME280;46911;32.650;-16.902;2023-06-14T08:31:29;101750.38;;;20.25;68.00
61026;BME280;46911;32.650;-16.902;2023-06-14T08:33:37;101746.53;;;20.18;67.48
61026;BME280;46911;32.650;-16.902;2023-06-14T08:35:38;101734.38;;;20.12;67.76
61026;BME280;46911;32.650;-16.902;2023-06-14T08:37:40;101749.78;;;20.21;67.88
61026;BME280;46911;32.650;-16.902;2023-06-14T08:39:44;101751.94;;;20.18;68.13
61026;BME280;46911;32.650;-16.902;2023-06-14T08:41:46;101756.06;;;20.22;67.97
61026;BME280;46911;32.650;-16.902;2023-06-14T08:43:49;101750.09;;;20.18;68.18
61026;BME280;46911;32.650;-16.902;2023-06-14T08:45:54;101761.19;;;20.25;68.86
61026;BME280;46911;32.650;-16.902;2023-06-14T08:47:59;101755.91;;;20.33;68.26
61026;BME280;46911;32.650;-16.902;2023-06-14T08:50:03;101757.19;;;20.39;68.50
61026;BME280;46911;32.650;-16.902;2023-06-14T08:52:08;101745.50;;;20.38;68.66
61026;BME280;46911;32.650;-16.902;2023-06-14T08:54:11;101743.53;;;20.40;68.88
61026;BME280;46911;32.650;-16.902;2023-06-14T08:56:13;101740.66;;;20.42;68.88
61026;BME280;46911;32.650;-16.902;2023-06-14T08:58:15;101742.09;;;20.46;68.93
61026;BME280;46911;32.650;-16.902;2023-06-14T09:00:16;101747.94;;;20.51;69.02
61026;BME280;46911;32.650;-16.902;2023-06-14T09:02:21;101741.34;;;20.64;68.49
61026;BME280;46911;32.650;-16.902;2023-06-14T09:04:25;101736.38;;;20.59;69.49
61026;BME280;46911;32.650;-16.902;2023-06-14T09:06:30;101725.22;;;20.62;69.07
61026;BME280;46911;32.650;-16.902;2023-06-14T09:08:30;101733.22;;;20.73;69.08
61026;BME280;46911;32.650;-16.902;2023-06-14T09:10:32;101741.78;;;20.79;68.86
61026;BME280;46911;32.650;-16.902;2023-06-14T09:12:38;101720.03;;;20.98;67.81
61026;BME280;46911;32.650;-16.902;2023-06-14T09:14:42;101727.34;;;20.88;68.27
61026;BME280;46911;32.650;-16.902;2023-06-14T09:16:45;101732.19;;;20.84;68.90
61026;BME280;46911;32.650;-16.902;2023-06-14T09:18:49;101723.25;;;20.74;68.89
61026;BME280;46911;32.650;-16.902;2023-06-14T09:20:50;101724.81;;;20.77;69.46
61026;BME280;46911;32.650;-16.902;2023-06-14T09:22:51;101738.31;;;20.86;69.47
61026;BME280;46911;32.650;-16.902;2023-06-14T09:24:53;101734.91;;;20.84;69.14
61026;BME280;46911;32.650;-16.902;2023-06-14T09:26:57;101740.88;;;20.88;68.89
61026;BME280;46911;32.650;-16.902;2023-06-14T09:28:58;101746.88;;;20.92;69.66
61026;BME280;46911;32.650;-16.902;2023-06-14T09:31:01;101728.47;;;20.95;69.14
61026;BME280;46911;32.650;-16.902;2023-06-14T09:33:07;101730.56;;;21.11;69.43
61026;BME280;46911;32.650;-16.902;2023-06-14T09:35:11;101736.78;;;21.21;69.24
61026;BME280;46911;32.650;-16.902;2023-06-14T09:37:12;101729.88;;;21.27;68.11
61026;BME280;46911;32.650;-16.902;2023-06-14T09:39:17;101731.25;;;21.41;67.85
61026;BME280;46911;32.650;-16.902;2023-06-14T09:41:18;101728.16;;;21.64;67.24
61026;BME280;46911;32.650;-16.902;2023-06-14T09:43:19;101737.41;;;22.07;66.12
61026;BME280;46911;32.650;-16.902;2023-06-14T09:45:23;101738.03;;;22.19;65.55
61026;BME280;46911;32.650;-16.902;2023-06-14T09:47:35;101719.72;;;22.39;64.64
61026;BME280;46911;32.650;-16.902;2023-06-14T09:49:39;101719.41;;;22.42;64.17
61026;BME280;46911;32.650;-16.902;2023-06-14T09:51:42;101717.72;;;22.67;63.61
61026;BME280;46911;32.650;-16.902;2023-06-14T09:53:45;101739.06;;;22.80;63.43
61026;BME280;46911;32.650;-16.902;2023-06-14T09:55:49;101717.91;;;23.00;62.31
61026;BME280;46911;32.650;-16.902;2023-06-14T09:57:55;101721.91;;;23.49;61.12
61026;BME280;46911;32.650;-16.902;2023-06-14T10:00:02;101730.72;;;23.94;59.96
61026;BME280;46911;32.650;-16.902;2023-06-14T10:04:24;101728.38;;;24.07;57.56
61026;BME280;46911;32.650;-16.902;2023-06-14T10:06:26;101723.75;;;24.16;58.11
61026;BME280;46911;32.650;-16.902;2023-06-14T10:08:32;101732.41;;;24.94;56.58
61026;BME280;46911;32.650;-16.902;2023-06-14T10:10:39;101727.91;;;25.57;53.82
61026;BME280;46911;32.650;-16.902;2023-06-14T10:12:41;101731.38;;;26.29;52.17
61026;BME280;46911;32.650;-16.902;2023-06-14T10:14:42;101721.47;;;26.28;50.10
61026;BME280;46911;32.650;-16.902;2023-06-14T10:21:32;101718.94;;;25.71;52.01
61026;BME280;46911;32.650;-16.902;2023-06-14T10:23:38;101711.41;;;26.05;51.86
61026;BME280;46911;32.650;-16.902;2023-06-14T10:25:44;101725.19;;;26.73;48.88
61026;BME280;46911;32.650;-16.902;2023-06-14T10:27:45;101722.44;;;26.73;49.20
61026;BME280;46911;32.650;-16.902;2023-06-14T10:32:00;101727.50;;;24.81;52.99
61026;BME280;46911;32.650;-16.902;2023-06-14T10:34:01;101717.59;;;24.80;53.41
61026;BME280;46911;32.650;-16.902;2023-06-14T10:38:11;101725.97;;;25.34;52.94
61026;BME280;46911;32.650;-16.902;2023-06-14T10:40:31;101731.63;;;26.42;50.54
61026;BME280;46911;32.650;-16.902;2023-06-14T10:42:32;101727.63;;;25.44;51.69